sensor_id;sensor_type;location;lat;lon;timestamp;pressure;altitude;pressure_sealevel;temperature;humidity
18504;BME280;9381;54.244;10.074;2023-02-20T00:04:32;101250.59;;;6.26;100.00
18504;BME280;9381;54.244;10.074;2023-02-20T00:09:32;101244.88;;;6.29;100.00
18504;BME280;9381;54.244;10.074;2023-02-20T00:14:33;101225.66;;;6.40;100.00
18504;BME280;9381;54.244;10.074;2023-02-20T00:19:33;101218.06;;;6.21;100.00
18504;BME280;9381;54.244;10.074;2023-02-20T00:24:33;101193.28;;;6.11;100.00
18504;BME280;9381;54.244;10.074;2023-02-20T00:29:34;101193.50;;;6.24;100.00
18504;BME280;9381;54.244;10.074;2023-02-20T00:34:34;101185.03;;;6.13;100.00
18504;BME280;9381;54.244;10.074;2023-02-20T00:39:34;101176.00;;;6.36;100.00
18504;BME280;9381;54.244;10.074;2023-02-20T00:44:34;101159.00;;;6.13;100.00
18504;BME280;9381;54.244;10.074;2023-02-20T00:49:35;101165.94;;;6.30;100.00
18504;BME280;9381;54.244;10.074;2023-02-20T00:54:35;101146.66;;;6.27;100.00
18504;BME280;9381;54.244;10.074;2023-02-20T00:59:35;101143.00;;;6.42;100.00
18504;BME280;9381;54.244;10.074;2023-02-20T01:04:35;101121.88;;;6.39;100.00
18504;BME280;9381;54.244;10.074;2023-02-20T01:09:36;101117.97;;;6.27;100.00
18504;BME280;9381;54.244;10.074;2023-02-20T01:14:36;101116.78;;;6.30;100.00
18504;BME280;9381;54.244;10.074;2023-02-20T01:19:36;101112.94;;;6.24;100.00
18504;BME280;9381;54.244;10.074;2023-02-20T01:24:37;101097.28;;;6.50;100.00
18504;BME280;9381;54.244;10.074;2023-02-20T01:29:39;101084.94;;;6.41;100.00
18504;BME280;9381;54.244;10.074;2023-02-20T01:34:39;101077.19;;;6.61;100.00
18504;BME280;9381;54.244;10.074;2023-02-20T01:39:39;101081.16;;;6.50;100.00
18504;BME280;9381;54.244;10.074;2023-02-20T01:44:40;101087.84;;;6.54;100.00
18504;BME280;9381;54.244;10.074;2023-02-20T01:49:59;101052.16;;;6.60;100.00
18504;BME280;9381;54.244;10.074;2023-02-20T01:55:13;101034.03;;;6.62;100.00
18504;BME280;9381;54.244;10.074;2023-02-20T02:00:17;101027.88;;;6.54;100.00
18504;BME280;9381;54.244;10.074;2023-02-20T02:05:19;101030.50;;;6.76;100.00
18504;BME280;9381;54.244;10.074;2023-02-20T02:10:28;101010.75;;;6.69;100.00
18504;BME280;9381;54.244;10.074;2023-02-20T02:15:29;101013.44;;;6.69;100.00
18504;BME280;9381;54.244;10.074;2023-02-20T02:31:27;101043.03;;;6.98;100.00
18504;BME280;9381;54.244;10.074;2023-02-20T02:42:26;101064.06;;;6.95;100.00
18504;BME280;9381;54.244;10.074;2023-02-20T02:47:35;101041.06;;;7.07;100.00
18504;BME280;9381;54.244;10.074;2023-02-20T02:52:37;101032.81;;;7.08;100.00
18504;BME280;9381;54.244;10.074;2023-02-20T02:57:47;101017.13;;;6.97;100.00
18504;BME280;9381;54.244;10.074;2023-02-20T03:08:28;100983.72;;;7.21;100.00
18504;BME280;9381;54.244;10.074;2023-02-20T03:13:43;100986.50;;;7.27;100.00
18504;BME280;9381;54.244;10.074;2023-02-20T03:19:06;100967.88;;;7.47;100.00
18504;BME280;9381;54.244;10.074;2023-02-20T03:24:14;100959.22;;;7.51;100.00
18504;BME280;9381;54.244;10.074;2023-02-20T03:29:30;100949.75;;;7.55;100.00
18504;BME280;9381;54.244;10.074;2023-02-20T03:34:32;100916.66;;;7.61;100.00
18504;BME280;9381;54.244;10.074;2023-02-20T03:39:55;100913.22;;;7.67;100.00
18504;BME280;9381;54.244;10.074;2023-02-20T03:45:17;100933.06;;;7.87;100.00
18504;BME280;9381;54.244;10.074;2023-02-20T03:50:19;100912.69;;;7.78;100.00
18504;BME280;9381;54.244;10.074;2023-02-20T03:55:20;100888.31;;;7.86;100.00
18504;BME280;9381;54.244;10.074;2023-02-20T04:00:29;100882.97;;;7.93;100.00
18504;BME280;9381;54.244;10.074;2023-02-20T04:05:34;100875.16;;;7.98;100.00
18504;BME280;9381;54.244;10.074;2023-02-20T04:10:44;100837.94;;;8.08;100.00
18504;BME280;9381;54.244;10.074;2023-02-20T04:15:47;100847.59;;;8.23;100.00
18504;BME280;9381;54.244;10.074;2023-02-20T04:20:52;100831.81;;;8.20;100.00
18504;BME280;9381;54.244;10.074;2023-02-20T04:25:58;100812.31;;;8.18;100.00
18504;BME280;9381;54.244;10.074;2023-02-20T04:31:00;100828.72;;;8.23;100.00
18504;BME280;9381;54.244;10.074;2023-02-20T04:36:00;100807.56;;;8.20;100.00
18504;BME280;9381;54.244;10.074;2023-02-20T04:41:01;100794.31;;;8.25;100.00
18504;BME280;9381;54.244;10.074;2023-02-20T04:46:01;100796.53;;;8.15;100.00
18504;BME280;9381;54.244;10.074;2023-02-20T04:51:02;100789.75;;;8.19;100.00
18504;BME280;9381;54.244;10.074;2023-02-20T04:56:02;100774.22;;;8.21;100.00
18504;BME280;9381;54.244;10.074;2023-02-20T05:01:02;100742.25;;;8.18;100.00
18504;BME280;9381;54.244;10.074;2023-02-20T05:06:03;100741.91;;;8.28;100.00
18504;BME280;9381;54.244;10.074;2023-02-20T05:11:03;100739.81;;;8.23;100.00
18504;BME280;9381;54.244;10.074;2023-02-20T05:16:04;100754.34;;;8.35;100.00
18504;BME280;9381;54.244;10.074;2023-02-20T05:21:05;100748.50;;;8.25;100.00
18504;BME280;9381;54.244;10.074;2023-02-20T05:26:24;100708.59;;;8.42;100.00
18504;BME280;9381;54.244;10.074;2023-02-20T05:31:24;100718.69;;;8.33;100.00
18504;BME280;9381;54.244;10.074;2023-02-20T05:36:24;100686.78;;;8.30;100.00
18504;BME280;9381;54.244;10.074;2023-02-20T05:41:25;100678.69;;;8.30;100.00
18504;BME280;9381;54.244;10.074;2023-02-20T05:46:26;100683.13;;;8.57;100.00
18504;BME280;9381;54.244;10.074;2023-02-20T05:51:28;100679.38;;;8.58;100.00
18504;BME280;9381;54.244;10.074;2023-02-20T05:56:28;100676.69;;;8.52;100.00
18504;BME280;9381;54.244;10.074;2023-02-20T06:01:30;100664.00;;;8.52;100.00
18504;BME280;9381;54.244;10.074;2023-02-20T06:06:50;100669.22;;;8.60;100.00
18504;BME280;9381;54.244;10.074;2023-02-20T06:11:55;100661.56;;;8.57;100.00
18504;BME280;9381;54.244;10.074;2023-02-20T06:16:56;100644.16;;;8.66;100.00
18504;BME280;9381;54.244;10.074;2023-02-20T06:21:56;100658.66;;;8.71;100.00
18504;BME280;9381;54.244;10.074;2023-02-20T06:26:58;100670.91;;;8.80;100.00
18504;BME280;9381;54.244;10.074;2023-02-20T06:32:00;100654.94;;;8.85;100.00
18504;BME280;9381;54.244;10.074;2023-02-20T06:37:01;100656.41;;;8.94;100.00
18504;BME280;9381;54.244;10.074;2023-02-20T06:42:03;100654.31;;;8.77;100.00
18504;BME280;9381;54.244;10.074;2023-02-20T06:47:04;100648.09;;;8.96;100.00
18504;BME280;9381;54.244;10.074;2023-02-20T06:52:08;100658.47;;;9.05;100.00
18504;BME280;9381;54.244;10.074;2023-02-20T06:57:09;100656.19;;;9.09;100.00
18504;BME280;9381;54.244;10.074;2023-02-20T07:02:10;100663.47;;;8.95;100.00
18504;BME280;9381;54.244;10.074;2023-02-20T07:07:11;100647.66;;;8.99;100.00
18504;BME280;9381;54.244;10.074;2023-02-20T07:12:11;100630.03;;;9.03;100.00
18504;BME280;9381;54.244;10.074;2023-02-20T07:17:12;100634.16;;;8.99;100.00
18504;BME280;9381;54.244;10.074;2023-02-20T07:22:12;100618.81;;;9.06;100.00
18504;BME280;9381;54.244;10.074;2023-02-20T07:27:12;100622.97;;;9.15;100.00
18504;BME280;9381;54.244;10.074;2023-02-20T07:32:13;100612.78;;;9.23;100.00
18504;BME280;9381;54.244;10.074;2023-02-20T07:37:14;100586.81;;;9.29;100.00
18504;BME280;9381;54.244;10.074;2023-02-20T07:42:18;100611.34;;;9.21;100.00
18504;BME280;9381;54.244;10.074;2023-02-20T07:47:18;100588.69;;;9.28;100.00
18504;BME280;9381;54.244;10.074;2023-02-20T07:52:19;100574.81;;;9.12;100.00
18504;BME280;9381;54.244;10.074;2023-02-20T07:57:19;100585.50;;;9.51;100.00
18504;BME280;9381;54.244;10.074;2023-02-20T08:02:20;100590.50;;;9.41;100.00
18504;BME280;9381;54.244;10.074;2023-02-20T08:07:20;100579.94;;;9.46;100.00
18504;BME280;9381;54.244;10.074;2023-02-20T08:12:20;100596.56;;;9.30;100.00
18504;BME280;9381;54.244;10.074;2023-02-20T08:17:21;100574.28;;;9.47;100.00
18504;BME280;9381;54.244;10.074;2023-02-20T08:22:21;100568.69;;;9.49;100.00
18504;BME280;9381;54.244;10.074;2023-02-20T08:27:21;100562.69;;;9.47;100.00
18504;BME280;9381;54.244;10.074;2023-02-20T08:32:22;100569.91;;;9.53;100.00
18504;BME280;9381;54.244;10.074;2023-02-20T08:37:22;100548.97;;;9.42;100.00
18504;BME280;9381;54.244;10.074;2023-02-20T08:42:22;100557.69;;;9.50;100.00
18504;BME280;9381;54.244;10.074;2023-02-20T08:47:23;100551.00;;;9.53;100.00
18504;BME280;9381;54.244;10.074;2023-02-20T08:52:24;100532.28;;;9.64;100.00
18504;BME280;9381;54.244;10.074;2023-02-20T08:57:24;100492.81;;;9.63;100.00
18504;BME280;9381;54.244;10.074;2023-02-20T09:02:24;100516.50;;;9.61;100.00
18504;BME280;9381;54.244;10.074;2023-02-20T09:07:27;100510.66;;;9.64;100.00
18504;BME280;9381;54.244;10.074;2023-02-20T09:12:28;100512.94;;;9.67;100.00
18504;BME280;9381;54.244;10.074;2023-02-20T09:17:30;100496.91;;;9.72;100.00
18504;BME280;9381;54.244;10.074;2023-02-20T09:22:30;100510.97;;;9.81;100.00
18504;BME280;9381;54.244;10.074;2023-02-20T09:27:31;100505.44;;;10.07;100.00
18504;BME280;9381;54.244;10.074;2023-02-20T09:32:31;100499.72;;;9.90;100.00
18504;BME280;9381;54.244;10.074;2023-02-20T09:37:32;100490.91;;;10.01;100.00
18504;BME280;9381;54.244;10.074;2023-02-20T09:43:08;100493.50;;;10.21;100.00
18504;BME280;9381;54.244;10.074;2023-02-20T09:54:01;100494.97;;;10.17;100.00
18504;BME280;9381;54.244;10.074;2023-02-20T09:59:09;100488.38;;;10.13;100.00
18504;BME280;9381;54.244;10.074;2023-02-20T10:04:15;100471.69;;;10.16;100.00
18504;BME280;9381;54.244;10.074;2023-02-20T10:09:17;100486.44;;;10.20;100.00
18504;BME280;9381;54.244;10.074;2023-02-20T10:14:30;100487.91;;;10.16;100.00
18504;BME280;9381;54.244;10.074;2023-02-20T10:19:51;100486.22;;;10.21;100.00
18504;BME280;9381;54.244;10.074;2023-02-20T10:30:23;100467.13;;;10.16;100.00
18504;BME280;9381;54.244;10.074;2023-02-20T10:35:31;100470.06;;;10.15;100.00
18504;BME280;9381;54.244;10.074;2023-02-20T10:40:39;100438.28;;;10.35;100.00
18504;BME280;9381;54.244;10.074;2023-02-20T10:45:48;100444.97;;;10.32;100.00
18504;BME280;9381;54.244;10.074;2023-02-20T10:56:41;100468.44;;;10.56;100.00
18504;BME280;9381;54.244;10.074;2023-02-20T11:01:45;100428.25;;;10.60;100.00
18504;BME280;9381;54.244;10.074;2023-02-20T11:07:04;100424.81;;;10.71;100.00
18504;BME280;9381;54.244;10.074;2023-02-20T11:12:07;100425.72;;;10.83;100.00
18504;BME280;9381;54.244;10.074;2023-02-20T11:17:14;100400.94;;;10.86;100.00
18504;BME280;9381;54.244;10.074;2023-02-20T11:22:17;100410.09;;;10.67;100.00
18504;BME280;9381;54.244;10.074;2023-02-20T11:27:21;100413.31;;;10.57;100.00
18504;BME280;9381;54.244;10.074;2023-02-20T11:32:29;100399.72;;;10.82;100.00
18504;BME280;9381;54.244;10.074;2023-02-20T11:37:30;100406.03;;;10.58;100.00
18504;BME280;9381;54.244;10.074;2023-02-20T11:42:33;100400.41;;;10.77;100.00
18504;BME280;9381;54.244;10.074;2023-02-20T11:47:34;100387.84;;;10.83;100.00
18504;BME280;9381;54.244;10.074;2023-02-20T11:52:34;100401.22;;;10.96;100.00
18504;BME280;9381;54.244;10.074;2023-02-20T11:57:41;100391.91;;;10.92;100.00
18504;BME280;9381;54.244;10.074;2023-02-20T12:03:03;100385.44;;;10.93;100.00
18504;BME280;9381;54.244;10.074;2023-02-20T12:13:44;100395.28;;;11.05;100.00
18504;BME280;9381;54.244;10.074;2023-02-20T12:19:46;100360.34;;;10.86;100.00
18504;BME280;9381;54.244;10.074;2023-02-20T12:30:46;100386.78;;;11.02;100.00
18504;BME280;9381;54.244;10.074;2023-02-20T12:46:14;100411.56;;;10.63;100.00
18504;BME280;9381;54.244;10.074;2023-02-20T13:07:20;100412.63;;;10.98;100.00
18504;BME280;9381;54.244;10.074;2023-02-20T13:12:23;100396.56;;;10.85;100.00
18504;BME280;9381;54.244;10.074;2023-02-20T13:17:31;100378.78;;;11.07;100.00
18504;BME280;9381;54.244;10.074;2023-02-20T13:22:36;100410.91;;;11.03;100.00
18504;BME280;9381;54.244;10.074;2023-02-20T13:27:37;100396.69;;;10.90;100.00
18504;BME280;9381;54.244;10.074;2023-02-20T13:32:37;100411.06;;;10.90;100.00
18504;BME280;9381;54.244;10.074;2023-02-20T13:42:39;100426.16;;;10.80;100.00
18504;BME280;9381;54.244;10.074;2023-02-20T13:47:39;100402.88;;;10.61;100.00
18504;BME280;9381;54.244;10.074;2023-02-20T13:52:41;100398.69;;;10.83;100.00
18504;BME280;9381;54.244;10.074;2023-02-20T13:58:01;100389.22;;;10.56;100.00
18504;BME280;9381;54.244;10.074;2023-02-20T14:03:27;100392.03;;;10.61;100.00
18504;BME280;9381;54.244;10.074;2023-02-20T14:08:28;100398.00;;;10.27;100.00
18504;BME280;9381;54.244;10.074;2023-02-20T14:13:29;100412.59;;;10.44;100.00
18504;BME280;9381;54.244;10.074;2023-02-20T14:18:31;100410.38;;;10.41;100.00
18504;BME280;9381;54.244;10.074;2023-02-20T14:23:32;100412.16;;;10.29;100.00
18504;BME280;9381;54.244;10.074;2023-02-20T14:28:34;100380.59;;;10.23;100.00
18504;BME280;9381;54.244;10.074;2023-02-20T14:33:35;100395.94;;;10.29;100.00
18504;BME280;9381;54.244;10.074;2023-02-20T14:44:00;100389.63;;;10.35;100.00
18504;BME280;9381;54.244;10.074;2023-02-20T14:49:10;100385.53;;;10.26;100.00
18504;BME280;9381;54.244;10.074;2023-02-20T14:54:24;100395.47;;;10.32;100.00
18504;BME280;9381;54.244;10.074;2023-02-20T14:59:34;100388.06;;;10.03;100.00
18504;BME280;9381;54.244;10.074;2023-02-20T15:04:35;100400.56;;;10.22;100.00
18504;BME280;9381;54.244;10.074;2023-02-20T15:09:41;100384.47;;;10.09;100.00
18504;BME280;9381;54.244;10.074;2023-02-20T15:14:42;100403.81;;;10.06;100.00
18504;BME280;9381;54.244;10.074;2023-02-20T15:19:43;100400.69;;;10.09;100.00
18504;BME280;9381;54.244;10.074;2023-02-20T15:24:44;100401.44;;;10.16;100.00
18504;BME280;9381;54.244;10.074;2023-02-20T15:29:46;100421.50;;;10.02;100.00
18504;BME280;9381;54.244;10.074;2023-02-20T15:34:52;100403.81;;;10.06;100.00
18504;BME280;9381;54.244;10.074;2023-02-20T15:39:53;100416.06;;;10.08;100.00
18504;BME280;9381;54.244;10.074;2023-02-20T15:44:54;100422.47;;;10.14;100.00
18504;BME280;9381;54.244;10.074;2023-02-20T15:49:54;100416.16;;;9.95;100.00
18504;BME280;9381;54.244;10.074;2023-02-20T15:54:55;100425.03;;;10.27;100.00
18504;BME280;9381;54.244;10.074;2023-02-20T15:59:55;100422.72;;;10.30;100.00
18504;BME280;9381;54.244;10.074;2023-02-20T16:04:57;100407.78;;;10.28;100.00
18504;BME280;9381;54.244;10.074;2023-02-20T16:09:57;100403.31;;;10.40;100.00
18504;BME280;9381;54.244;10.074;2023-02-20T16:15:01;100420.84;;;10.31;100.00
18504;BME280;9381;54.244;10.074;2023-02-20T16:20:13;100406.22;;;10.38;100.00
18504;BME280;9381;54.244;10.074;2023-02-20T16:25:16;100410.19;;;10.18;100.00
18504;BME280;9381;54.244;10.074;2023-02-20T16:30:24;100402.53;;;10.33;100.00
18504;BME280;9381;54.244;10.074;2023-02-20T16:35:26;100408.72;;;10.40;100.00
18504;BME280;9381;54.244;10.074;2023-02-20T16:40:26;100398.16;;;10.14;100.00
18504;BME280;9381;54.244;10.074;2023-02-20T16:45:27;100407.28;;;10.13;100.00
18504;BME280;9381;54.244;10.074;2023-02-20T16:50:30;100417.63;;;10.22;100.00
18504;BME280;9381;54.244;10.074;2023-02-20T16:55:34;100412.59;;;10.44;100.00
18504;BME280;9381;54.244;10.074;2023-02-20T17:00:37;100429.75;;;10.38;100.00
18504;BME280;9381;54.244;10.074;2023-02-20T17:05:41;100432.88;;;10.35;100.00
18504;BME280;9381;54.244;10.074;2023-02-20T17:10:41;100448.34;;;10.28;100.00
18504;BME280;9381;54.244;10.074;2023-02-20T17:15:41;100461.16;;;10.08;100.00
18504;BME280;9381;54.244;10.074;2023-02-20T17:20:43;100463.06;;;10.32;100.00
18504;BME280;9381;54.244;10.074;2023-02-20T17:25:43;100478.72;;;10.23;100.00
18504;BME280;9381;54.244;10.074;2023-02-20T17:30:44;100472.81;;;10.33;100.00
18504;BME280;9381;54.244;10.074;2023-02-20T17:35:46;100469.06;;;10.34;100.00
18504;BME280;9381;54.244;10.074;2023-02-20T17:40:47;100480.00;;;10.21;100.00
18504;BME280;9381;54.244;10.074;2023-02-20T17:45:47;100465.88;;;10.19;100.00
18504;BME280;9381;54.244;10.074;2023-02-20T17:50:48;100469.31;;;10.32;100.00
18504;BME280;9381;54.244;10.074;2023-02-20T17:55:48;100477.56;;;10.13;100.00
18504;BME280;9381;54.244;10.074;2023-02-20T18:00:48;100472.66;;;10.28;100.00
18504;BME280;9381;54.244;10.074;2023-02-20T18:05:49;100475.41;;;10.21;100.00
18504;BME280;9381;54.244;10.074;2023-02-20T18:10:49;100478.69;;;10.30;100.00
18504;BME280;9381;54.244;10.074;2023-02-20T18:15:49;100473.41;;;10.10;100.00
18504;BME280;9381;54.244;10.074;2023-02-20T18:20:50;100478.41;;;10.38;100.00
18504;BME280;9381;54.244;10.074;2023-02-20T18:25:50;100475.31;;;10.34;100.00
18504;BME280;9381;54.244;10.074;2023-02-20T18:30:50;100469.66;;;10.11;100.00
18504;BME280;9381;54.244;10.074;2023-02-20T18:35:51;100483.69;;;10.26;100.00
18504;BME280;9381;54.244;10.074;2023-02-20T18:40:51;100477.91;;;10.23;100.00
18504;BME280;9381;54.244;10.074;2023-02-20T18:45:52;100483.97;;;10.43;100.00
18504;BME280;9381;54.244;10.074;2023-02-20T18:50:52;100487.88;;;10.47;100.00
18504;BME280;9381;54.244;10.074;2023-02-20T18:55:52;100497.75;;;10.35;100.00
18504;BME280;9381;54.244;10.074;2023-02-20T19:00:53;100482.56;;;10.09;100.00
18504;BME280;9381;54.244;10.074;2023-02-20T19:05:54;100500.44;;;10.10;100.00
18504;BME280;9381;54.244;10.074;2023-02-20T19:10:54;100497.00;;;10.28;100.00
18504;BME280;9381;54.244;10.074;2023-02-20T19:15:54;100492.72;;;10.14;100.00
18504;BME280;9381;54.244;10.074;2023-02-20T19:20:55;100502.34;;;10.34;100.00
18504;BME280;9381;54.244;10.074;2023-02-20T19:25:55;100508.69;;;10.22;100.00
18504;BME280;9381;54.244;10.074;2023-02-20T19:30:58;100497.81;;;10.28;100.00
18504;BME280;9381;54.244;10.074;2023-02-20T19:36:00;100511.06;;;10.36;100.00
18504;BME280;9381;54.244;10.074;2023-02-20T19:41:00;100524.63;;;10.30;100.00
18504;BME280;9381;54.244;10.074;2023-02-20T19:46:01;100530.09;;;10.48;100.00
18504;BME280;9381;54.244;10.074;2023-02-20T19:51:01;100539.25;;;10.47;100.00
18504;BME280;9381;54.244;10.074;2023-02-20T19:56:02;100546.59;;;10.40;100.00
18504;BME280;9381;54.244;10.074;2023-02-20T20:01:02;100553.38;;;10.24;100.00
18504;BME280;9381;54.244;10.074;2023-02-20T20:06:06;100541.38;;;10.14;100.00
18504;BME280;9381;54.244;10.074;2023-02-20T20:11:07;100553.69;;;9.97;100.00
18504;BME280;9381;54.244;10.074;2023-02-20T20:16:07;100553.44;;;9.74;100.00
18504;BME280;9381;54.244;10.074;2023-02-20T20:21:09;100557.53;;;9.83;100.00
18504;BME280;9381;54.244;10.074;2023-02-20T20:26:09;100561.13;;;9.70;100.00
18504;BME280;9381;54.244;10.074;2023-02-20T20:31:10;100555.47;;;9.78;100.00
18504;BME280;9381;54.244;10.074;2023-02-20T20:36:10;100543.41;;;9.81;100.00
18504;BME280;9381;54.244;10.074;2023-02-20T20:41:12;100551.34;;;9.76;100.00
18504;BME280;9381;54.244;10.074;2023-02-20T20:46:16;100551.81;;;9.60;100.00
18504;BME280;9381;54.244;10.074;2023-02-20T20:51:17;100535.56;;;9.73;100.00
18504;BME280;9381;54.244;10.074;2023-02-20T20:56:18;100550.53;;;9.69;100.00
18504;BME280;9381;54.244;10.074;2023-02-20T21:01:18;100554.53;;;9.60;100.00
18504;BME280;9381;54.244;10.074;2023-02-20T21:06:18;100558.09;;;9.54;100.00
18504;BME280;9381;54.244;10.074;2023-02-20T21:11:19;100561.16;;;9.64;100.00
18504;BME280;9381;54.244;10.074;2023-02-20T21:16:19;100565.91;;;9.68;100.00
18504;BME280;9381;54.244;10.074;2023-02-20T21:21:30;100556.59;;;9.58;100.00
18504;BME280;9381;54.244;10.074;2023-02-20T21:26:30;100573.44;;;9.53;100.00
18504;BME280;9381;54.244;10.074;2023-02-20T21:31:31;100564.03;;;9.69;100.00
18504;BME280;9381;54.244;10.074;2023-02-20T21:36:31;100568.47;;;9.57;100.00
18504;BME280;9381;54.244;10.074;2023-02-20T21:41:32;100566.34;;;9.65;100.00
18504;BME280;9381;54.244;10.074;2023-02-20T21:47:02;100566.41;;;9.52;100.00
18504;BME280;9381;54.244;10.074;2023-02-20T21:52:03;100578.84;;;9.53;100.00
18504;BME280;9381;54.244;10.074;2023-02-20T21:57:04;100570.97;;;9.45;100.00
18504;BME280;9381;54.244;10.074;2023-02-20T22:02:05;100575.59;;;9.32;100.00
18504;BME280;9381;54.244;10.074;2023-02-20T22:07:05;100569.38;;;9.25;100.00
18504;BME280;9381;54.244;10.074;2023-02-20T22:12:24;100572.91;;;9.32;100.00
18504;BME280;9381;54.244;10.074;2023-02-20T22:17:44;100574.38;;;9.28;100.00
18504;BME280;9381;54.244;10.074;2023-02-20T22:23:02;100584.94;;;9.36;100.00
18504;BME280;9381;54.244;10.074;2023-02-20T22:28:21;100575.41;;;9.27;100.00
18504;BME280;9381;54.244;10.074;2023-02-20T22:33:40;100581.81;;;9.39;100.00
18504;BME280;9381;54.244;10.074;2023-02-20T22:39:00;100581.66;;;9.21;100.00
18504;BME280;9381;54.244;10.074;2023-02-20T22:44:19;100588.91;;;9.27;100.00
18504;BME280;9381;54.244;10.074;2023-02-20T22:49:38;100592.22;;;9.29;100.00
18504;BME280;9381;54.244;10.074;2023-02-20T22:54:57;100614.63;;;9.36;100.00
18504;BME280;9381;54.244;10.074;2023-02-20T23:00:16;100600.69;;;9.39;100.00
18504;BME280;9381;54.244;10.074;2023-02-20T23:05:34;100605.09;;;9.20;100.00
18504;BME280;9381;54.244;10.074;2023-02-20T23:10:53;100610.88;;;9.37;100.00
18504;BME280;9381;54.244;10.074;2023-02-20T23:16:16;100605.28;;;9.32;100.00
18504;BME280;9381;54.244;10.074;2023-02-20T23:21:36;100613.34;;;9.38;100.00
18504;BME280;9381;54.244;10.074;2023-02-20T23:26:55;100613.59;;;9.37;100.00
18504;BME280;9381;54.244;10.074;2023-02-20T23:32:13;100604.84;;;9.35;100.00
18504;BME280;9381;54.244;10.074;2023-02-20T23:37:32;100605.50;;;9.24;100.00
18504;BME280;9381;54.244;10.074;2023-02-20T23:42:51;100603.00;;;9.29;100.00
18504;BME280;9381;54.244;10.074;2023-02-20T23:48:10;100595.97;;;9.28;100.00
18504;BME280;9381;54.244;10.074;2023-02-20T23:53:33;100601.97;;;9.17;100.00
18504;BME280;9381;54.244;10.074;2023-02-20T23:58:52;100610.13;;;8.91;100.00
